Terminal Aerodrome Forecast
Issued by NWS

Home | Current Version | Previous Version | Text Only | Print | Product List | Glossary On
Versions: 1 2 3 4 5 6 7 8 9 10 11 12 13 14 15 16 17 18 19
076
FTUS43 KMPX 211136
TAFRNH
TAF
KRNH 211136Z 2112/2212 00000KT 2SM BR VV007
      TEMPO 2112/2113 6SM BR SCT008
     FM211300 15006KT P6SM SCT050 BKN200
     FM211700 13010KT P6SM VCSH SCT050 OVC100
      TEMPO 2120/2124 6SM -TSRA BKN040CB
     FM220400 14010KT P6SM VCTS BKN050CB OVC100 PROB30 2204/2207 3SM
      -TSRA
     FM220700 10005KT P6SM BKN060=

USA.gov is the U.S. government's official web portal to all federal, state and local government web resources and services.